sensor_id;sensor_type;location;lat;lon;timestamp;noise_LAeq;noise_LA_min;noise_LA_max;noise_LA01;noise_LA95
72415;Laerm;60995;52.154;4.498;2023-03-14T00:01:21;50.54;41.75;67.81;;
72415;Laerm;60995;52.154;4.498;2023-03-14T00:03:37;49.33;43.37;61.66;;
72415;Laerm;60995;52.154;4.498;2023-03-14T00:05:54;48.41;42.21;66.07;;
72415;Laerm;60995;52.154;4.498;2023-03-14T00:08:10;46.59;39.74;63.56;;
72415;Laerm;60995;52.154;4.498;2023-03-14T00:10:27;45.75;40.36;63.96;;
72415;Laerm;60995;52.154;4.498;2023-03-14T00:12:44;47.14;40.32;62.51;;
72415;Laerm;60995;52.154;4.498;2023-03-14T00:15:00;48.26;43.26;59.77;;
72415;Laerm;60995;52.154;4.498;2023-03-14T00:17:19;47.75;41.36;66.32;;
72415;Laerm;60995;52.154;4.498;2023-03-14T00:19:35;45.56;39.96;55.03;;
72415;Laerm;60995;52.154;4.498;2023-03-14T00:21:54;52.02;41.21;73.54;;
72415;Laerm;60995;52.154;4.498;2023-03-14T00:24:11;51.31;40.55;76.18;;
72415;Laerm;60995;52.154;4.498;2023-03-14T00:26:27;47.81;41.92;62.98;;
72415;Laerm;60995;52.154;4.498;2023-03-14T00:28:44;48.31;42.57;63.98;;
72415;Laerm;60995;52.154;4.498;2023-03-14T00:31:06;48.87;41.43;68.08;;
72415;Laerm;60995;52.154;4.498;2023-03-14T00:33:23;46.02;40.98;62.66;;
72415;Laerm;60995;52.154;4.498;2023-03-14T00:35:40;48.78;41.10;65.62;;
72415;Laerm;60995;52.154;4.498;2023-03-14T00:37:56;48.31;43.44;54.63;;
72415;Laerm;60995;52.154;4.498;2023-03-14T00:40:12;48.67;42.59;55.10;;
72415;Laerm;60995;52.154;4.498;2023-03-14T00:42:29;48.68;43.27;59.97;;
72415;Laerm;60995;52.154;4.498;2023-03-14T00:44:45;49.34;43.85;63.63;;
72415;Laerm;60995;52.154;4.498;2023-03-14T00:47:01;49.12;43.56;63.72;;
72415;Laerm;60995;52.154;4.498;2023-03-14T00:49:18;48.94;43.69;63.71;;
72415;Laerm;60995;52.154;4.498;2023-03-14T00:51:34;48.78;43.27;63.58;;
72415;Laerm;60995;52.154;4.498;2023-03-14T00:53:50;48.90;42.76;63.84;;
72415;Laerm;60995;52.154;4.498;2023-03-14T00:56:11;49.07;41.08;64.37;;
72415;Laerm;60995;52.154;4.498;2023-03-14T00:58:27;44.47;39.55;62.93;;
72415;Laerm;60995;52.154;4.498;2023-03-14T01:00:45;45.57;38.76;62.60;;
72415;Laerm;60995;52.154;4.498;2023-03-14T01:03:05;45.45;39.69;54.56;;
72415;Laerm;60995;52.154;4.498;2023-03-14T01:05:22;46.30;40.42;57.32;;
72415;Laerm;60995;52.154;4.498;2023-03-14T01:07:39;48.13;40.10;67.62;;
72415;Laerm;60995;52.154;4.498;2023-03-14T01:09:55;47.30;40.23;72.49;;
72415;Laerm;60995;52.154;4.498;2023-03-14T01:12:11;44.52;38.29;63.31;;
72415;Laerm;60995;52.154;4.498;2023-03-14T01:14:28;45.53;39.99;61.84;;
72415;Laerm;60995;52.154;4.498;2023-03-14T01:16:45;46.25;40.66;62.52;;
72415;Laerm;60995;52.154;4.498;2023-03-14T01:19:02;44.81;38.60;63.44;;
72415;Laerm;60995;52.154;4.498;2023-03-14T01:21:33;44.99;39.21;61.83;;
72415;Laerm;60995;52.154;4.498;2023-03-14T01:23:52;46.38;40.11;63.44;;
72415;Laerm;60995;52.154;4.498;2023-03-14T01:26:12;45.83;40.81;63.33;;
72415;Laerm;60995;52.154;4.498;2023-03-14T01:28:28;45.26;40.05;62.84;;
72415;Laerm;60995;52.154;4.498;2023-03-14T01:30:45;48.15;40.40;58.83;;
72415;Laerm;60995;52.154;4.498;2023-03-14T01:33:01;49.34;42.43;68.44;;
72415;Laerm;60995;52.154;4.498;2023-03-14T01:35:17;45.53;39.52;55.86;;
72415;Laerm;60995;52.154;4.498;2023-03-14T01:37:33;49.21;40.66;74.91;;
72415;Laerm;60995;52.154;4.498;2023-03-14T01:39:50;46.65;40.43;62.93;;
72415;Laerm;60995;52.154;4.498;2023-03-14T01:42:06;46.77;39.36;63.62;;
72415;Laerm;60995;52.154;4.498;2023-03-14T01:44:22;47.23;39.80;69.89;;
72415;Laerm;60995;52.154;4.498;2023-03-14T01:46:46;48.82;40.03;69.51;;
72415;Laerm;60995;52.154;4.498;2023-03-14T01:49:35;47.44;40.82;63.35;;
72415;Laerm;60995;52.154;4.498;2023-03-14T01:56:52;45.28;38.77;63.06;;
72415;Laerm;60995;52.154;4.498;2023-03-14T01:59:11;45.22;40.18;51.81;;
72415;Laerm;60995;52.154;4.498;2023-03-14T02:01:28;43.45;38.43;57.31;;
72415;Laerm;60995;52.154;4.498;2023-03-14T02:03:53;43.37;38.37;50.12;;
72415;Laerm;60995;52.154;4.498;2023-03-14T02:06:11;45.25;39.89;62.36;;
72415;Laerm;60995;52.154;4.498;2023-03-14T02:08:31;43.56;39.02;63.12;;
72415;Laerm;60995;52.154;4.498;2023-03-14T02:10:49;43.22;38.54;62.85;;
72415;Laerm;60995;52.154;4.498;2023-03-14T02:13:06;43.22;38.46;63.67;;
72415;Laerm;60995;52.154;4.498;2023-03-14T02:15:23;43.46;38.73;62.45;;
72415;Laerm;60995;52.154;4.498;2023-03-14T02:17:43;45.12;38.51;63.52;;
72415;Laerm;60995;52.154;4.498;2023-03-14T02:20:32;44.19;39.17;53.29;;
72415;Laerm;60995;52.154;4.498;2023-03-14T02:22:50;44.07;39.31;50.36;;
72415;Laerm;60995;52.154;4.498;2023-03-14T02:27:23;45.35;40.12;53.99;;
72415;Laerm;60995;52.154;4.498;2023-03-14T02:29:51;49.27;39.90;74.15;;
72415;Laerm;60995;52.154;4.498;2023-03-14T02:32:08;46.30;40.47;55.58;;
72415;Laerm;60995;52.154;4.498;2023-03-14T02:34:25;44.43;39.40;54.50;;
72415;Laerm;60995;52.154;4.498;2023-03-14T02:36:42;46.52;40.44;66.96;;
72415;Laerm;60995;52.154;4.498;2023-03-14T02:39:17;45.65;39.72;65.61;;
72415;Laerm;60995;52.154;4.498;2023-03-14T02:41:37;44.45;38.47;60.45;;
72415;Laerm;60995;52.154;4.498;2023-03-14T02:43:53;57.49;38.38;86.52;;
72415;Laerm;60995;52.154;4.498;2023-03-14T02:46:18;44.19;39.81;51.34;;
72415;Laerm;60995;52.154;4.498;2023-03-14T02:49:13;43.77;39.10;54.48;;
72415;Laerm;60995;52.154;4.498;2023-03-14T02:51:31;45.96;39.51;66.87;;
72415;Laerm;60995;52.154;4.498;2023-03-14T02:53:47;44.95;40.08;52.52;;
72415;Laerm;60995;52.154;4.498;2023-03-14T02:56:05;45.06;38.92;62.82;;
72415;Laerm;60995;52.154;4.498;2023-03-14T02:58:21;44.27;38.83;62.95;;
72415;Laerm;60995;52.154;4.498;2023-03-14T03:00:38;46.05;39.49;63.00;;
72415;Laerm;60995;52.154;4.498;2023-03-14T03:02:54;49.00;43.98;63.56;;
72415;Laerm;60995;52.154;4.498;2023-03-14T03:05:10;49.56;43.23;62.89;;
72415;Laerm;60995;52.154;4.498;2023-03-14T03:07:26;48.52;43.23;63.82;;
72415;Laerm;60995;52.154;4.498;2023-03-14T03:09:43;48.73;43.83;64.12;;
72415;Laerm;60995;52.154;4.498;2023-03-14T03:12:00;51.13;43.62;77.23;;
72415;Laerm;60995;52.154;4.498;2023-03-14T03:14:16;53.17;43.44;81.71;;
72415;Laerm;60995;52.154;4.498;2023-03-14T03:16:32;48.51;43.23;60.20;;
72415;Laerm;60995;52.154;4.498;2023-03-14T03:18:48;48.54;43.69;61.87;;
72415;Laerm;60995;52.154;4.498;2023-03-14T03:21:05;48.11;42.95;55.38;;
72415;Laerm;60995;52.154;4.498;2023-03-14T03:23:23;46.95;39.94;53.98;;
72415;Laerm;60995;52.154;4.498;2023-03-14T03:25:40;47.89;39.94;68.39;;
72415;Laerm;60995;52.154;4.498;2023-03-14T03:27:57;45.78;40.26;65.46;;
72415;Laerm;60995;52.154;4.498;2023-03-14T03:30:13;44.26;39.04;60.44;;
72415;Laerm;60995;52.154;4.498;2023-03-14T03:32:30;45.24;38.98;58.00;;
72415;Laerm;60995;52.154;4.498;2023-03-14T03:34:46;44.58;39.71;53.04;;
72415;Laerm;60995;52.154;4.498;2023-03-14T03:37:02;44.43;38.87;52.93;;
72415;Laerm;60995;52.154;4.498;2023-03-14T03:39:19;44.45;39.27;50.64;;
72415;Laerm;60995;52.154;4.498;2023-03-14T03:41:35;45.09;40.27;54.65;;
72415;Laerm;60995;52.154;4.498;2023-03-14T03:43:51;44.68;39.44;52.23;;
72415;Laerm;60995;52.154;4.498;2023-03-14T03:46:08;45.00;39.91;61.05;;
72415;Laerm;60995;52.154;4.498;2023-03-14T03:48:24;45.25;39.69;52.03;;
72415;Laerm;60995;52.154;4.498;2023-03-14T03:50:46;44.71;39.86;53.56;;
72415;Laerm;60995;52.154;4.498;2023-03-14T03:53:02;44.89;40.31;53.23;;
72415;Laerm;60995;52.154;4.498;2023-03-14T03:55:19;48.14;40.56;69.22;;
72415;Laerm;60995;52.154;4.498;2023-03-14T03:57:35;44.58;40.02;50.58;;
72415;Laerm;60995;52.154;4.498;2023-03-14T03:59:51;44.64;39.80;59.20;;
72415;Laerm;60995;52.154;4.498;2023-03-14T04:02:07;44.59;40.38;53.19;;
72415;Laerm;60995;52.154;4.498;2023-03-14T04:04:24;49.26;40.73;65.89;;
72415;Laerm;60995;52.154;4.498;2023-03-14T04:06:41;49.07;40.88;67.13;;
72415;Laerm;60995;52.154;4.498;2023-03-14T04:08:58;53.24;46.51;71.10;;
72415;Laerm;60995;52.154;4.498;2023-03-14T04:11:14;51.37;43.52;70.59;;
72415;Laerm;60995;52.154;4.498;2023-03-14T04:13:30;52.05;46.47;63.96;;
72415;Laerm;60995;52.154;4.498;2023-03-14T04:15:47;51.08;45.52;67.41;;
72415;Laerm;60995;52.154;4.498;2023-03-14T04:18:03;51.00;45.09;66.06;;
72415;Laerm;60995;52.154;4.498;2023-03-14T04:20:19;52.20;46.23;66.04;;
72415;Laerm;60995;52.154;4.498;2023-03-14T04:22:39;53.97;48.32;69.14;;
72415;Laerm;60995;52.154;4.498;2023-03-14T04:24:56;54.35;48.72;75.02;;
72415;Laerm;60995;52.154;4.498;2023-03-14T04:27:12;57.05;50.68;73.96;;
72415;Laerm;60995;52.154;4.498;2023-03-14T04:29:30;56.56;51.40;71.74;;
72415;Laerm;60995;52.154;4.498;2023-03-14T04:31:46;56.23;50.79;69.65;;
72415;Laerm;60995;52.154;4.498;2023-03-14T04:34:03;56.68;50.93;70.62;;
72415;Laerm;60995;52.154;4.498;2023-03-14T04:36:19;55.99;50.65;73.28;;
72415;Laerm;60995;52.154;4.498;2023-03-14T04:38:36;56.50;50.41;78.10;;
72415;Laerm;60995;52.154;4.498;2023-03-14T04:40:52;56.54;51.00;78.42;;
72415;Laerm;60995;52.154;4.498;2023-03-14T04:43:11;56.10;50.86;74.79;;
72415;Laerm;60995;52.154;4.498;2023-03-14T04:45:27;57.48;52.18;71.67;;
72415;Laerm;60995;52.154;4.498;2023-03-14T04:47:43;54.86;49.63;69.30;;
72415;Laerm;60995;52.154;4.498;2023-03-14T04:50:00;53.77;48.92;69.06;;
72415;Laerm;60995;52.154;4.498;2023-03-14T04:52:16;53.59;49.09;63.56;;
72415;Laerm;60995;52.154;4.498;2023-03-14T04:54:33;54.59;49.39;62.77;;
72415;Laerm;60995;52.154;4.498;2023-03-14T04:56:49;54.28;48.91;68.91;;
72415;Laerm;60995;52.154;4.498;2023-03-14T04:59:05;53.69;48.26;66.11;;
72415;Laerm;60995;52.154;4.498;2023-03-14T05:01:21;53.26;47.07;65.70;;
72415;Laerm;60995;52.154;4.498;2023-03-14T05:03:38;54.94;47.83;69.02;;
72415;Laerm;60995;52.154;4.498;2023-03-14T05:05:54;54.16;48.80;69.63;;
72415;Laerm;60995;52.154;4.498;2023-03-14T05:08:11;55.89;50.66;74.82;;
72415;Laerm;60995;52.154;4.498;2023-03-14T05:10:29;55.97;50.11;71.32;;
72415;Laerm;60995;52.154;4.498;2023-03-14T05:12:45;55.48;49.34;72.65;;
72415;Laerm;60995;52.154;4.498;2023-03-14T05:15:02;55.73;50.58;67.63;;
72415;Laerm;60995;52.154;4.498;2023-03-14T05:17:20;54.71;49.40;65.66;;
72415;Laerm;60995;52.154;4.498;2023-03-14T05:19:36;56.06;49.54;72.53;;
72415;Laerm;60995;52.154;4.498;2023-03-14T05:21:53;56.14;50.39;69.52;;
72415;Laerm;60995;52.154;4.498;2023-03-14T05:24:09;54.70;48.82;68.25;;
72415;Laerm;60995;52.154;4.498;2023-03-14T05:26:25;53.26;47.19;64.66;;
72415;Laerm;60995;52.154;4.498;2023-03-14T05:28:42;52.28;44.45;65.17;;
72415;Laerm;60995;52.154;4.498;2023-03-14T05:30:58;51.36;43.18;65.59;;
72415;Laerm;60995;52.154;4.498;2023-03-14T05:33:14;52.02;43.72;65.18;;
72415;Laerm;60995;52.154;4.498;2023-03-14T05:35:31;52.27;44.68;68.79;;
72415;Laerm;60995;52.154;4.498;2023-03-14T05:37:47;52.92;45.37;74.86;;
72415;Laerm;60995;52.154;4.498;2023-03-14T05:40:06;53.64;45.76;68.69;;
72415;Laerm;60995;52.154;4.498;2023-03-14T05:42:22;55.62;48.88;76.18;;
72415;Laerm;60995;52.154;4.498;2023-03-14T05:44:38;54.44;47.61;67.90;;
72415;Laerm;60995;52.154;4.498;2023-03-14T05:46:54;53.66;45.64;65.35;;
72415;Laerm;60995;52.154;4.498;2023-03-14T05:49:11;53.79;46.09;67.41;;
72415;Laerm;60995;52.154;4.498;2023-03-14T05:51:27;52.84;45.82;65.73;;
72415;Laerm;60995;52.154;4.498;2023-03-14T05:53:43;51.15;43.09;65.94;;
72415;Laerm;60995;52.154;4.498;2023-03-14T05:55:59;51.34;42.72;65.77;;
72415;Laerm;60995;52.154;4.498;2023-03-14T05:58:16;51.73;43.52;65.60;;
72415;Laerm;60995;52.154;4.498;2023-03-14T06:00:32;54.37;45.62;67.94;;
72415;Laerm;60995;52.154;4.498;2023-03-14T06:02:48;54.77;48.85;68.50;;
72415;Laerm;60995;52.154;4.498;2023-03-14T06:05:06;53.34;45.64;68.79;;
72415;Laerm;60995;52.154;4.498;2023-03-14T06:07:23;53.24;45.55;65.75;;
72415;Laerm;60995;52.154;4.498;2023-03-14T06:09:39;52.42;44.51;65.16;;
72415;Laerm;60995;52.154;4.498;2023-03-14T06:11:58;51.27;43.84;64.86;;
72415;Laerm;60995;52.154;4.498;2023-03-14T06:14:15;51.70;44.76;65.72;;
72415;Laerm;60995;52.154;4.498;2023-03-14T06:16:31;52.22;43.35;64.82;;
72415;Laerm;60995;52.154;4.498;2023-03-14T06:18:48;52.36;44.28;66.73;;
72415;Laerm;60995;52.154;4.498;2023-03-14T06:21:05;55.41;43.57;66.90;;
72415;Laerm;60995;52.154;4.498;2023-03-14T06:23:22;52.28;44.59;64.97;;
72415;Laerm;60995;52.154;4.498;2023-03-14T06:25:39;51.03;42.62;65.64;;
72415;Laerm;60995;52.154;4.498;2023-03-14T06:27:55;52.04;42.51;65.28;;
72415;Laerm;60995;52.154;4.498;2023-03-14T06:30:11;51.65;41.86;64.62;;
72415;Laerm;60995;52.154;4.498;2023-03-14T06:32:28;53.63;45.42;65.36;;
72415;Laerm;60995;52.154;4.498;2023-03-14T06:34:44;52.24;42.30;64.75;;
72415;Laerm;60995;52.154;4.498;2023-03-14T06:37:00;51.25;42.31;64.56;;
72415;Laerm;60995;52.154;4.498;2023-03-14T06:39:17;50.73;42.49;65.92;;
72415;Laerm;60995;52.154;4.498;2023-03-14T06:41:34;50.15;40.62;65.14;;
72415;Laerm;60995;52.154;4.498;2023-03-14T06:43:51;50.77;41.28;64.94;;
72415;Laerm;60995;52.154;4.498;2023-03-14T06:46:07;50.86;41.58;64.61;;
72415;Laerm;60995;52.154;4.498;2023-03-14T06:48:23;50.85;43.32;64.34;;
72415;Laerm;60995;52.154;4.498;2023-03-14T06:50:41;52.08;43.17;65.65;;
72415;Laerm;60995;52.154;4.498;2023-03-14T06:52:57;49.39;41.79;64.52;;
72415;Laerm;60995;52.154;4.498;2023-03-14T06:55:15;49.33;42.15;63.64;;
72415;Laerm;60995;52.154;4.498;2023-03-14T06:57:32;51.54;41.37;68.68;;
72415;Laerm;60995;52.154;4.498;2023-03-14T06:59:48;54.54;41.72;73.71;;
72415;Laerm;60995;52.154;4.498;2023-03-14T07:02:04;50.39;42.40;64.54;;
72415;Laerm;60995;52.154;4.498;2023-03-14T07:04:21;51.11;41.61;61.90;;
72415;Laerm;60995;52.154;4.498;2023-03-14T07:06:37;50.52;43.82;63.58;;
72415;Laerm;60995;52.154;4.498;2023-03-14T07:08:56;49.10;39.34;63.94;;
72415;Laerm;60995;52.154;4.498;2023-03-14T07:11:13;51.12;44.15;63.93;;
72415;Laerm;60995;52.154;4.498;2023-03-14T07:13:29;50.23;42.75;62.53;;
72415;Laerm;60995;52.154;4.498;2023-03-14T07:15:45;51.48;41.46;64.52;;
72415;Laerm;60995;52.154;4.498;2023-03-14T07:18:01;53.18;41.34;69.44;;
72415;Laerm;60995;52.154;4.498;2023-03-14T07:20:18;51.18;41.35;64.29;;
72415;Laerm;60995;52.154;4.498;2023-03-14T07:22:34;50.95;42.81;65.09;;
72415;Laerm;60995;52.154;4.498;2023-03-14T07:24:50;59.63;48.22;78.38;;
72415;Laerm;60995;52.154;4.498;2023-03-14T07:27:06;56.39;47.21;78.12;;
72415;Laerm;60995;52.154;4.498;2023-03-14T07:29:23;52.93;46.40;62.39;;
72415;Laerm;60995;52.154;4.498;2023-03-14T07:31:39;58.36;45.55;73.48;;
72415;Laerm;60995;52.154;4.498;2023-03-14T07:33:56;52.43;44.18;64.90;;
72415;Laerm;60995;52.154;4.498;2023-03-14T07:36:12;51.48;44.26;64.33;;
72415;Laerm;60995;52.154;4.498;2023-03-14T07:38:28;54.45;44.30;67.87;;
72415;Laerm;60995;52.154;4.498;2023-03-14T07:40:45;56.93;45.94;75.38;;
72415;Laerm;60995;52.154;4.498;2023-03-14T07:43:01;53.37;47.31;62.71;;
72415;Laerm;60995;52.154;4.498;2023-03-14T07:45:17;54.33;47.35;74.31;;
72415;Laerm;60995;52.154;4.498;2023-03-14T07:47:34;55.36;48.52;68.07;;
72415;Laerm;60995;52.154;4.498;2023-03-14T07:49:50;54.25;44.46;67.50;;
72415;Laerm;60995;52.154;4.498;2023-03-14T07:52:06;53.62;45.24;67.56;;
72415;Laerm;60995;52.154;4.498;2023-03-14T07:54:23;54.37;45.13;66.92;;
72415;Laerm;60995;52.154;4.498;2023-03-14T07:56:40;51.98;44.35;62.70;;
72415;Laerm;60995;52.154;4.498;2023-03-14T07:58:57;53.49;45.83;65.58;;
72415;Laerm;60995;52.154;4.498;2023-03-14T08:01:13;52.10;44.09;58.97;;
72415;Laerm;60995;52.154;4.498;2023-03-14T08:03:29;51.85;45.75;64.48;;
72415;Laerm;60995;52.154;4.498;2023-03-14T08:05:49;51.82;44.20;60.34;;
72415;Laerm;60995;52.154;4.498;2023-03-14T08:08:06;52.66;44.09;58.76;;
72415;Laerm;60995;52.154;4.498;2023-03-14T08:10:22;52.26;43.87;60.29;;
72415;Laerm;60995;52.154;4.498;2023-03-14T08:12:39;52.34;42.71;63.21;;
72415;Laerm;60995;52.154;4.498;2023-03-14T08:14:55;54.76;47.95;68.75;;
72415;Laerm;60995;52.154;4.498;2023-03-14T08:17:11;51.79;43.76;62.29;;
72415;Laerm;60995;52.154;4.498;2023-03-14T08:19:28;51.11;44.39;64.48;;
72415;Laerm;60995;52.154;4.498;2023-03-14T08:21:44;51.72;43.10;64.91;;
72415;Laerm;60995;52.154;4.498;2023-03-14T08:24:00;52.65;43.84;58.83;;
72415;Laerm;60995;52.154;4.498;2023-03-14T08:26:17;51.79;44.12;62.35;;
72415;Laerm;60995;52.154;4.498;2023-03-14T08:28:33;52.16;43.20;63.37;;
72415;Laerm;60995;52.154;4.498;2023-03-14T08:30:49;51.99;45.60;62.37;;
72415;Laerm;60995;52.154;4.498;2023-03-14T08:33:06;54.06;43.45;65.81;;
72415;Laerm;60995;52.154;4.498;2023-03-14T08:35:22;51.65;43.55;59.64;;
72415;Laerm;60995;52.154;4.498;2023-03-14T08:37:38;52.23;43.61;60.19;;
72415;Laerm;60995;52.154;4.498;2023-03-14T08:39:54;52.04;44.22;63.49;;
72415;Laerm;60995;52.154;4.498;2023-03-14T08:42:10;52.61;43.83;61.72;;
72415;Laerm;60995;52.154;4.498;2023-03-14T08:44:27;51.64;43.08;65.58;;
72415;Laerm;60995;52.154;4.498;2023-03-14T08:46:43;52.76;44.52;66.11;;
72415;Laerm;60995;52.154;4.498;2023-03-14T08:48:59;52.65;44.47;63.10;;
72415;Laerm;60995;52.154;4.498;2023-03-14T08:51:16;50.45;42.90;68.36;;
72415;Laerm;60995;52.154;4.498;2023-03-14T08:53:33;49.67;42.88;57.04;;
72415;Laerm;60995;52.154;4.498;2023-03-14T08:55:53;52.34;43.64;62.20;;
72415;Laerm;60995;52.154;4.498;2023-03-14T08:58:10;51.82;43.66;61.13;;
72415;Laerm;60995;52.154;4.498;2023-03-14T09:00:26;53.07;44.96;64.99;;
72415;Laerm;60995;52.154;4.498;2023-03-14T09:02:43;53.00;44.00;68.26;;
72415;Laerm;60995;52.154;4.498;2023-03-14T09:05:00;52.27;42.61;66.27;;
72415;Laerm;60995;52.154;4.498;2023-03-14T09:07:17;49.78;42.91;59.70;;
72415;Laerm;60995;52.154;4.498;2023-03-14T09:09:33;53.07;45.54;64.98;;
72415;Laerm;60995;52.154;4.498;2023-03-14T09:11:50;50.76;43.05;59.51;;
72415;Laerm;60995;52.154;4.498;2023-03-14T09:14:06;49.80;43.28;58.43;;
72415;Laerm;60995;52.154;4.498;2023-03-14T09:16:22;50.32;42.25;58.78;;
72415;Laerm;60995;52.154;4.498;2023-03-14T09:18:39;55.33;45.58;73.83;;
72415;Laerm;60995;52.154;4.498;2023-03-14T09:20:55;52.25;42.97;65.79;;
72415;Laerm;60995;52.154;4.498;2023-03-14T09:23:12;52.61;46.25;68.13;;
72415;Laerm;60995;52.154;4.498;2023-03-14T09:25:28;51.78;44.34;65.26;;
72415;Laerm;60995;52.154;4.498;2023-03-14T09:27:44;52.35;45.32;73.18;;
72415;Laerm;60995;52.154;4.498;2023-03-14T09:30:01;51.37;44.99;58.86;;
72415;Laerm;60995;52.154;4.498;2023-03-14T09:32:17;51.28;45.87;59.02;;
72415;Laerm;60995;52.154;4.498;2023-03-14T09:34:34;52.30;44.82;64.29;;
72415;Laerm;60995;52.154;4.498;2023-03-14T09:36:50;55.48;43.52;75.68;;
72415;Laerm;60995;52.154;4.498;2023-03-14T09:39:07;52.67;43.78;60.00;;
72415;Laerm;60995;52.154;4.498;2023-03-14T09:41:51;53.62;42.89;66.87;;
72415;Laerm;60995;52.154;4.498;2023-03-14T09:44:36;51.22;42.84;63.75;;
72415;Laerm;60995;52.154;4.498;2023-03-14T09:46:57;56.39;41.65;71.89;;
72415;Laerm;60995;52.154;4.498;2023-03-14T09:49:37;52.25;43.32;65.62;;
72415;Laerm;60995;52.154;4.498;2023-03-14T09:51:58;50.83;44.05;62.46;;
72415;Laerm;60995;52.154;4.498;2023-03-14T09:54:35;52.38;43.34;64.20;;
72415;Laerm;60995;52.154;4.498;2023-03-14T09:56:52;51.94;43.68;67.14;;
72415;Laerm;60995;52.154;4.498;2023-03-14T09:59:12;53.21;44.69;65.43;;
72415;Laerm;60995;52.154;4.498;2023-03-14T10:01:33;52.12;42.76;64.23;;
72415;Laerm;60995;52.154;4.498;2023-03-14T10:03:55;55.87;42.60;76.09;;
72415;Laerm;60995;52.154;4.498;2023-03-14T10:06:14;51.91;43.55;70.12;;
72415;Laerm;60995;52.154;4.498;2023-03-14T10:08:31;53.42;43.40;65.89;;
72415;Laerm;60995;52.154;4.498;2023-03-14T10:10:47;52.43;44.12;68.88;;
72415;Laerm;60995;52.154;4.498;2023-03-14T10:13:26;55.37;45.58;68.79;;
72415;Laerm;60995;52.154;4.498;2023-03-14T10:15:52;54.70;45.39;68.83;;
72415;Laerm;60995;52.154;4.498;2023-03-14T10:18:12;52.46;43.92;63.52;;
72415;Laerm;60995;52.154;4.498;2023-03-14T10:20:37;51.74;43.80;62.32;;
72415;Laerm;60995;52.154;4.498;2023-03-14T10:22:55;54.39;44.25;70.86;;
72415;Laerm;60995;52.154;4.498;2023-03-14T10:25:28;55.50;44.15;75.10;;
72415;Laerm;60995;52.154;4.498;2023-03-14T10:27:44;55.32;46.90;71.41;;
72415;Laerm;60995;52.154;4.498;2023-03-14T10:30:13;52.42;44.39;69.67;;
72415;Laerm;60995;52.154;4.498;2023-03-14T10:32:46;60.55;44.49;78.89;;
72415;Laerm;60995;52.154;4.498;2023-03-14T10:35:18;54.82;43.08;76.85;;
72415;Laerm;60995;52.154;4.498;2023-03-14T10:37:35;58.20;46.72;73.04;;
72415;Laerm;60995;52.154;4.498;2023-03-14T10:39:55;57.71;43.83;75.14;;
72415;Laerm;60995;52.154;4.498;2023-03-14T10:42:19;53.44;44.98;74.67;;
72415;Laerm;60995;52.154;4.498;2023-03-14T10:44:38;52.35;43.65;61.32;;
72415;Laerm;60995;52.154;4.498;2023-03-14T10:47:04;50.93;42.16;58.91;;
72415;Laerm;60995;52.154;4.498;2023-03-14T10:49:32;50.88;43.07;58.50;;
72415;Laerm;60995;52.154;4.498;2023-03-14T10:51:49;50.80;43.79;58.48;;
72415;Laerm;60995;52.154;4.498;2023-03-14T10:54:21;57.61;44.93;83.15;;
72415;Laerm;60995;52.154;4.498;2023-03-14T10:56:39;55.33;43.86;74.26;;
72415;Laerm;60995;52.154;4.498;2023-03-14T10:58:57;70.11;43.75;86.81;;
72415;Laerm;60995;52.154;4.498;2023-03-14T11:01:49;52.81;43.07;63.53;;
72415;Laerm;60995;52.154;4.498;2023-03-14T11:07:43;53.39;46.00;67.69;;
72415;Laerm;60995;52.154;4.498;2023-03-14T11:13:25;51.28;41.27;65.04;;
72415;Laerm;60995;52.154;4.498;2023-03-14T11:26:46;50.95;42.08;62.72;;
72415;Laerm;60995;52.154;4.498;2023-03-14T11:29:33;53.21;41.36;65.16;;
72415;Laerm;60995;52.154;4.498;2023-03-14T11:31:59;51.61;43.31;67.77;;
72415;Laerm;60995;52.154;4.498;2023-03-14T11:34:28;53.70;45.47;64.76;;
72415;Laerm;60995;52.154;4.498;2023-03-14T11:37:00;52.99;42.29;71.78;;
72415;Laerm;60995;52.154;4.498;2023-03-14T11:39:19;52.03;42.65;70.32;;
72415;Laerm;60995;52.154;4.498;2023-03-14T11:41:40;57.48;45.27;82.38;;
72415;Laerm;60995;52.154;4.498;2023-03-14T11:43:59;52.88;44.18;81.63;;
72415;Laerm;60995;52.154;4.498;2023-03-14T11:49:24;51.99;43.02;64.05;;
72415;Laerm;60995;52.154;4.498;2023-03-14T11:51:46;50.65;42.96;61.67;;
72415;Laerm;60995;52.154;4.498;2023-03-14T11:54:27;51.91;44.28;63.24;;
72415;Laerm;60995;52.154;4.498;2023-03-14T11:56:58;50.89;44.35;62.85;;
72415;Laerm;60995;52.154;4.498;2023-03-14T11:59:31;52.80;44.61;74.01;;
72415;Laerm;60995;52.154;4.498;2023-03-14T12:01:56;53.49;44.16;75.83;;
72415;Laerm;60995;52.154;4.498;2023-03-14T12:07:29;50.53;40.92;59.77;;
72415;Laerm;60995;52.154;4.498;2023-03-14T12:09:48;51.15;41.36;63.84;;
72415;Laerm;60995;52.154;4.498;2023-03-14T12:12:10;52.25;41.61;62.63;;
72415;Laerm;60995;52.154;4.498;2023-03-14T12:14:37;52.13;43.72;69.99;;
72415;Laerm;60995;52.154;4.498;2023-03-14T12:17:22;52.23;41.28;62.07;;
72415;Laerm;60995;52.154;4.498;2023-03-14T12:19:41;49.53;41.09;57.71;;
72415;Laerm;60995;52.154;4.498;2023-03-14T12:22:01;50.61;42.53;61.23;;
72415;Laerm;60995;52.154;4.498;2023-03-14T12:24:49;49.83;41.79;64.38;;
72415;Laerm;60995;52.154;4.498;2023-03-14T12:30:40;52.99;45.38;62.85;;
72415;Laerm;60995;52.154;4.498;2023-03-14T12:35:41;56.66;44.71;70.17;;
72415;Laerm;60995;52.154;4.498;2023-03-14T12:38:00;56.14;48.46;64.86;;
72415;Laerm;60995;52.154;4.498;2023-03-14T12:40:31;51.55;43.36;67.61;;
72415;Laerm;60995;52.154;4.498;2023-03-14T12:42:58;51.81;45.36;64.98;;
72415;Laerm;60995;52.154;4.498;2023-03-14T12:48:43;54.57;46.43;62.51;;
72415;Laerm;60995;52.154;4.498;2023-03-14T12:50:55;56.56;45.63;80.72;;
72415;Laerm;60995;52.154;4.498;2023-03-14T12:59:02;53.16;41.91;73.21;;
72415;Laerm;60995;52.154;4.498;2023-03-14T13:01:21;53.26;41.78;71.70;;
72415;Laerm;60995;52.154;4.498;2023-03-14T13:04:09;50.45;42.92;58.73;;
72415;Laerm;60995;52.154;4.498;2023-03-14T13:11:45;54.44;43.95;72.37;;
72415;Laerm;60995;52.154;4.498;2023-03-14T13:14:02;50.99;41.66;71.64;;
72415;Laerm;60995;52.154;4.498;2023-03-14T13:16:25;53.17;40.98;70.10;;
72415;Laerm;60995;52.154;4.498;2023-03-14T13:18:47;50.41;41.40;58.67;;
72415;Laerm;60995;52.154;4.498;2023-03-14T13:21:21;57.84;43.14;72.53;;
72415;Laerm;60995;52.154;4.498;2023-03-14T13:23:39;50.07;42.60;60.10;;
72415;Laerm;60995;52.154;4.498;2023-03-14T13:25:56;52.23;43.61;66.88;;
72415;Laerm;60995;52.154;4.498;2023-03-14T13:28:14;54.10;45.33;74.13;;
72415;Laerm;60995;52.154;4.498;2023-03-14T13:30:43;49.32;42.03;63.77;;
72415;Laerm;60995;52.154;4.498;2023-03-14T13:33:04;54.82;42.42;86.66;;
72415;Laerm;60995;52.154;4.498;2023-03-14T13:35:29;58.14;40.73;86.98;;
72415;Laerm;60995;52.154;4.498;2023-03-14T13:37:46;52.75;43.29;71.78;;
72415;Laerm;60995;52.154;4.498;2023-03-14T13:40:03;51.63;41.59;62.12;;
72415;Laerm;60995;52.154;4.498;2023-03-14T13:42:19;52.23;43.74;66.78;;
72415;Laerm;60995;52.154;4.498;2023-03-14T13:44:40;52.36;42.18;63.96;;
72415;Laerm;60995;52.154;4.498;2023-03-14T13:47:02;50.19;41.44;62.30;;
72415;Laerm;60995;52.154;4.498;2023-03-14T13:49:25;51.11;41.69;63.27;;
72415;Laerm;60995;52.154;4.498;2023-03-14T13:51:42;54.63;43.77;74.10;;